Saturday, January 31, 2015
10:03 UTC
  |  Log In   |  Register Free
Airport Search:

Indiana County/Jimmy Stewart Fld/ Airport
(KIDI)

Indiana County/Jimmy Stewart Fld/ Airport Diagram
No Airport Diagram Available

FAA data valid effective January 08, 2015 - March 05, 2015 (unless otherwise noted).

 
 
 
 
 
 
 
 
 
 
 
 
 
 

Current Aviation Weather for Indiana County/Jimmy Stewart Fld/ Airport (KIDI)

The most recent METAR observation for KIDI was updated at: 0911
METAR Summary (Translated METAR)
KIDI
310855Z AUTO 29010KT 10SM OVC022 M12/M15 A3033 RMK A01
KJST
310854Z AUTO 29009KT 5SM -SN OVC013 M14/M17 A3017 RMK AO2 SLP266 P0000 60000 T11391167 58003
(22.7 nm SE from KIDI)
KLBE
310855Z AUTO 21006KT 10SM CLR M14/M17 A3036 RMK AO2
(25.5 nm SW from KIDI)
TAF Summary (Translated TAF)
KJST
(22.7 nm SE from KIDI)
310711Z 3107/0106 29013G26KT 2SM -SN OVC016 FM311000 31012G22KT P6SM SCT025 BKN040 FM311400 28010KT P6SM BKN035
KLBE
(25.5 nm SW from KIDI)
310530Z 3106/0106 26008KT P6SM BKN035 FM310700 28005KT P6SM SCT035 FM311800 24009KT P6SM BKN025 FM312300 23006KT P6SM SCT025 BKN250
  Airport Weather Conditions for KIDI

 Current Weather at IDI
10° F
Overcast
West winds at 11.5 mph
IDI NOAA Radar

Pressure: 30.33 in
Humidity: 79%
Wind: West at 11.5 MPH (10 KT)
Dew Point: 5.0°F
Visibility: 10.00 mi


Airport Weather Forecast for KIDI

Translated METAR and TAF for KIDI
Translated METAR for KIDI (1003 UTC 31 January 2015)
found at http://aviationweather.gov/adds/metars/
 
METAR text: KIDI 310955Z AUTO 27007KT 10SM OVC021 M13/M15 A3032 RMK A01
Conditions at: KIDI (INDIANA/STEWART , PA, US) observed 0955 UTC 31 January 2015
Temperature: -13.0°C (9°F)
Dewpoint: -15.0°C (5°F) [RH = 85%]
Pressure (altimeter): 30.32 inches Hg (1026.8 mb)
Winds: from the W (270 degrees) at 8 MPH (7 knots; 3.6 m/s)
Visibility: 10 or more miles (16+ km)
Ceiling: 2100 feet AGL
Clouds: overcast cloud deck at 2100 feet AGL
Weather: automated observation with no human augmentation;
there may or may not be significant weather present at this time
Translated TAF for KIDI

There is no translated TAF available for this airport

Find All Airport Services Find A Hotel Find A Rental Car Find A Golf Course Find A Restaurant $100 Hamburger



FBO's on the Field
FBO Company Facility Photos Services Transportation Aviation Fuel Prices: Prices include tax
Catering Weather Repair Courtesy Rental Type 100LL JetA JetA+ MOGAS 8087
 
Indiana County Jimmy Stewart Airport

Currently rated 5 by 1 person
FS:Phillips 66
Last Updated: Jan-20
Login to update fuel prices
SS:
Contact Indiana County Jimmy Stewart AirportMore FBO Information
 
Add another FBO Facility Photos Catering Weather Repair Courtesy Rental Type 100LL JetA JetA+ MOGAS 8087
Services Transportation Aviation Fuel Prices: Prices include tax


model-print
model-print
model-print
model-print